Terminal Aerodrome Forecast
Issued by NWS Upton, NY

Home | Current Version | Previous Version | Text Only | Print | Product List | Glossary On
Versions: 1 2 3 4 5 6 7 8 9 10 11 12 13 14 15 16 17 18 19 20 21 22 23 24 25
000
FTUS41 KOKX 040230 AAA
TAFBDR
TAF AMD
KBDR 040230Z 0402/0424 16005KT P6SM BKN200
     FM040600 VRB02KT P6SM BKN200
     FM040900 08006KT P6SM OVC120
     FM041500 05011KT P6SM SCT050 OVC080 PROB30 0415/0421 5SM -RA
      BKN050
     FM042100 04010KT P6SM BKN080=

USA.gov is the U.S. government's official web portal to all federal, state and local government web resources and services.